sensor_id;sensor_type;location;lat;lon;timestamp;P1;durP1;ratioP1;P2;durP2;ratioP2
37903;SDS011;23738;50.422;18.758;2024-03-07T00:00:44;37.30;;;20.90;;
37903;SDS011;23738;50.422;18.758;2024-03-07T00:03:14;36.80;;;20.90;;
37903;SDS011;23738;50.422;18.758;2024-03-07T00:05:44;37.60;;;21.10;;
37903;SDS011;23738;50.422;18.758;2024-03-07T00:08:14;42.30;;;21.70;;
37903;SDS011;23738;50.422;18.758;2024-03-07T00:10:44;38.80;;;21.10;;
37903;SDS011;23738;50.422;18.758;2024-03-07T00:13:14;37.20;;;21.60;;
37903;SDS011;23738;50.422;18.758;2024-03-07T00:15:43;41.00;;;21.90;;
37903;SDS011;23738;50.422;18.758;2024-03-07T00:18:13;44.60;;;22.50;;
37903;SDS011;23738;50.422;18.758;2024-03-07T00:20:43;43.40;;;23.00;;
37903;SDS011;23738;50.422;18.758;2024-03-07T00:23:12;45.20;;;23.70;;
37903;SDS011;23738;50.422;18.758;2024-03-07T00:25:43;45.00;;;23.70;;
37903;SDS011;23738;50.422;18.758;2024-03-07T00:28:15;38.90;;;22.10;;
37903;SDS011;23738;50.422;18.758;2024-03-07T00:30:45;45.10;;;24.00;;
37903;SDS011;23738;50.422;18.758;2024-03-07T00:33:15;43.10;;;23.90;;
37903;SDS011;23738;50.422;18.758;2024-03-07T00:35:48;44.00;;;24.70;;
37903;SDS011;23738;50.422;18.758;2024-03-07T00:38:18;43.80;;;23.70;;
37903;SDS011;23738;50.422;18.758;2024-03-07T00:40:48;48.00;;;24.70;;
37903;SDS011;23738;50.422;18.758;2024-03-07T00:43:17;43.90;;;23.20;;
37903;SDS011;23738;50.422;18.758;2024-03-07T00:45:47;47.30;;;23.00;;
37903;SDS011;23738;50.422;18.758;2024-03-07T00:48:17;44.60;;;23.20;;
37903;SDS011;23738;50.422;18.758;2024-03-07T00:50:47;46.20;;;23.30;;
37903;SDS011;23738;50.422;18.758;2024-03-07T00:53:16;48.80;;;25.60;;
37903;SDS011;23738;50.422;18.758;2024-03-07T00:55:46;50.20;;;25.80;;
37903;SDS011;23738;50.422;18.758;2024-03-07T00:58:15;50.00;;;24.00;;
37903;SDS011;23738;50.422;18.758;2024-03-07T01:00:45;48.40;;;23.60;;
37903;SDS011;23738;50.422;18.758;2024-03-07T01:03:14;48.90;;;23.00;;
37903;SDS011;23738;50.422;18.758;2024-03-07T01:05:45;43.00;;;23.50;;
37903;SDS011;23738;50.422;18.758;2024-03-07T01:08:15;50.50;;;25.10;;
37903;SDS011;23738;50.422;18.758;2024-03-07T01:10:44;45.00;;;23.70;;
37903;SDS011;23738;50.422;18.758;2024-03-07T01:13:14;52.00;;;25.60;;
37903;SDS011;23738;50.422;18.758;2024-03-07T01:15:48;47.50;;;24.90;;
37903;SDS011;23738;50.422;18.758;2024-03-07T01:18:18;51.70;;;24.20;;
37903;SDS011;23738;50.422;18.758;2024-03-07T01:20:48;49.80;;;23.70;;
37903;SDS011;23738;50.422;18.758;2024-03-07T01:23:17;48.70;;;24.90;;
37903;SDS011;23738;50.422;18.758;2024-03-07T01:25:47;51.20;;;24.50;;
37903;SDS011;23738;50.422;18.758;2024-03-07T01:28:17;53.40;;;24.80;;
37903;SDS011;23738;50.422;18.758;2024-03-07T01:30:46;52.50;;;26.40;;
37903;SDS011;23738;50.422;18.758;2024-03-07T01:33:16;54.30;;;25.50;;
37903;SDS011;23738;50.422;18.758;2024-03-07T01:35:45;49.80;;;23.80;;
37903;SDS011;23738;50.422;18.758;2024-03-07T01:38:15;49.00;;;24.20;;
37903;SDS011;23738;50.422;18.758;2024-03-07T01:40:45;44.00;;;25.40;;
37903;SDS011;23738;50.422;18.758;2024-03-07T01:43:15;49.40;;;23.80;;
37903;SDS011;23738;50.422;18.758;2024-03-07T01:45:45;53.60;;;25.60;;
37903;SDS011;23738;50.422;18.758;2024-03-07T01:48:24;51.90;;;26.40;;
37903;SDS011;23738;50.422;18.758;2024-03-07T01:50:56;54.70;;;26.80;;
37903;SDS011;23738;50.422;18.758;2024-03-07T01:53:27;55.80;;;25.60;;
37903;SDS011;23738;50.422;18.758;2024-03-07T01:56:00;49.60;;;26.00;;
37903;SDS011;23738;50.422;18.758;2024-03-07T01:58:32;46.90;;;24.50;;
37903;SDS011;23738;50.422;18.758;2024-03-07T02:01:03;48.70;;;25.20;;
37903;SDS011;23738;50.422;18.758;2024-03-07T02:03:33;48.50;;;26.10;;
37903;SDS011;23738;50.422;18.758;2024-03-07T02:06:03;55.90;;;27.00;;
37903;SDS011;23738;50.422;18.758;2024-03-07T02:08:34;45.90;;;25.80;;
37903;SDS011;23738;50.422;18.758;2024-03-07T02:11:04;49.80;;;25.00;;
37903;SDS011;23738;50.422;18.758;2024-03-07T02:13:33;47.50;;;22.70;;
37903;SDS011;23738;50.422;18.758;2024-03-07T02:16:03;58.20;;;28.00;;
37903;SDS011;23738;50.422;18.758;2024-03-07T02:18:34;48.90;;;26.10;;
37903;SDS011;23738;50.422;18.758;2024-03-07T02:21:07;46.90;;;25.30;;
37903;SDS011;23738;50.422;18.758;2024-03-07T02:23:38;50.30;;;27.60;;
37903;SDS011;23738;50.422;18.758;2024-03-07T02:26:08;47.00;;;26.20;;
37903;SDS011;23738;50.422;18.758;2024-03-07T02:28:39;45.30;;;25.00;;
37903;SDS011;23738;50.422;18.758;2024-03-07T02:31:08;38.00;;;23.10;;
37903;SDS011;23738;50.422;18.758;2024-03-07T02:33:39;44.30;;;24.40;;
37903;SDS011;23738;50.422;18.758;2024-03-07T02:36:08;49.20;;;26.20;;
37903;SDS011;23738;50.422;18.758;2024-03-07T02:38:38;50.10;;;26.40;;
37903;SDS011;23738;50.422;18.758;2024-03-07T02:41:08;42.00;;;25.10;;
37903;SDS011;23738;50.422;18.758;2024-03-07T02:43:39;39.70;;;25.40;;
37903;SDS011;23738;50.422;18.758;2024-03-07T02:46:09;45.90;;;25.60;;
37903;SDS011;23738;50.422;18.758;2024-03-07T02:48:39;45.80;;;25.30;;
37903;SDS011;23738;50.422;18.758;2024-03-07T02:51:10;43.60;;;25.20;;
37903;SDS011;23738;50.422;18.758;2024-03-07T02:53:40;48.80;;;25.90;;
37903;SDS011;23738;50.422;18.758;2024-03-07T02:56:09;49.70;;;25.80;;
37903;SDS011;23738;50.422;18.758;2024-03-07T02:58:39;47.90;;;26.60;;
37903;SDS011;23738;50.422;18.758;2024-03-07T03:01:09;46.40;;;25.90;;
37903;SDS011;23738;50.422;18.758;2024-03-07T03:03:40;43.70;;;24.70;;
37903;SDS011;23738;50.422;18.758;2024-03-07T03:06:10;45.30;;;24.70;;
37903;SDS011;23738;50.422;18.758;2024-03-07T03:08:39;43.70;;;24.90;;
37903;SDS011;23738;50.422;18.758;2024-03-07T03:11:09;39.30;;;23.60;;
37903;SDS011;23738;50.422;18.758;2024-03-07T03:13:40;39.30;;;23.00;;
37903;SDS011;23738;50.422;18.758;2024-03-07T03:16:10;41.70;;;24.00;;
37903;SDS011;23738;50.422;18.758;2024-03-07T03:18:40;41.80;;;24.70;;
37903;SDS011;23738;50.422;18.758;2024-03-07T03:21:10;46.40;;;22.60;;
37903;SDS011;23738;50.422;18.758;2024-03-07T03:23:39;37.20;;;21.40;;
37903;SDS011;23738;50.422;18.758;2024-03-07T03:26:09;36.30;;;22.30;;
37903;SDS011;23738;50.422;18.758;2024-03-07T03:28:40;33.50;;;22.60;;
37903;SDS011;23738;50.422;18.758;2024-03-07T03:31:11;43.30;;;23.30;;
37903;SDS011;23738;50.422;18.758;2024-03-07T03:33:41;35.60;;;22.00;;
37903;SDS011;23738;50.422;18.758;2024-03-07T03:36:10;36.40;;;22.10;;
37903;SDS011;23738;50.422;18.758;2024-03-07T03:38:41;41.90;;;21.80;;
37903;SDS011;23738;50.422;18.758;2024-03-07T03:41:14;37.70;;;21.10;;
37903;SDS011;23738;50.422;18.758;2024-03-07T03:43:44;34.30;;;20.80;;
37903;SDS011;23738;50.422;18.758;2024-03-07T03:46:14;33.00;;;21.30;;
37903;SDS011;23738;50.422;18.758;2024-03-07T03:48:44;33.80;;;19.50;;
37903;SDS011;23738;50.422;18.758;2024-03-07T03:51:14;34.80;;;20.90;;
37903;SDS011;23738;50.422;18.758;2024-03-07T03:53:44;34.70;;;21.00;;
37903;SDS011;23738;50.422;18.758;2024-03-07T03:56:14;28.90;;;19.40;;
37903;SDS011;23738;50.422;18.758;2024-03-07T03:58:44;35.20;;;18.90;;
37903;SDS011;23738;50.422;18.758;2024-03-07T04:01:13;33.80;;;18.90;;
37903;SDS011;23738;50.422;18.758;2024-03-07T04:03:43;31.50;;;18.50;;
37903;SDS011;23738;50.422;18.758;2024-03-07T04:06:13;31.90;;;18.70;;
37903;SDS011;23738;50.422;18.758;2024-03-07T04:08:43;28.30;;;17.70;;
37903;SDS011;23738;50.422;18.758;2024-03-07T04:11:13;27.70;;;18.60;;
37903;SDS011;23738;50.422;18.758;2024-03-07T04:13:43;37.50;;;19.60;;
37903;SDS011;23738;50.422;18.758;2024-03-07T04:16:15;32.50;;;18.70;;
37903;SDS011;23738;50.422;18.758;2024-03-07T04:18:44;28.70;;;19.10;;
37903;SDS011;23738;50.422;18.758;2024-03-07T04:21:14;30.30;;;19.50;;
37903;SDS011;23738;50.422;18.758;2024-03-07T04:23:44;34.00;;;20.90;;
37903;SDS011;23738;50.422;18.758;2024-03-07T04:26:13;32.20;;;20.30;;
37903;SDS011;23738;50.422;18.758;2024-03-07T04:28:43;35.20;;;20.60;;
37903;SDS011;23738;50.422;18.758;2024-03-07T04:31:13;30.30;;;18.90;;
37903;SDS011;23738;50.422;18.758;2024-03-07T04:33:43;36.00;;;18.90;;
37903;SDS011;23738;50.422;18.758;2024-03-07T04:36:13;23.90;;;17.60;;
37903;SDS011;23738;50.422;18.758;2024-03-07T04:38:42;32.90;;;19.30;;
37903;SDS011;23738;50.422;18.758;2024-03-07T04:41:12;23.10;;;18.10;;
37903;SDS011;23738;50.422;18.758;2024-03-07T04:43:42;32.80;;;19.70;;
37903;SDS011;23738;50.422;18.758;2024-03-07T04:46:12;27.60;;;20.60;;
37903;SDS011;23738;50.422;18.758;2024-03-07T04:48:41;32.20;;;20.90;;
37903;SDS011;23738;50.422;18.758;2024-03-07T04:51:11;31.60;;;18.60;;
37903;SDS011;23738;50.422;18.758;2024-03-07T04:53:41;26.10;;;18.30;;
37903;SDS011;23738;50.422;18.758;2024-03-07T04:56:11;29.20;;;18.10;;
37903;SDS011;23738;50.422;18.758;2024-03-07T04:58:41;32.60;;;19.90;;
37903;SDS011;23738;50.422;18.758;2024-03-07T05:01:11;27.90;;;19.80;;
37903;SDS011;23738;50.422;18.758;2024-03-07T05:03:41;38.50;;;19.50;;
37903;SDS011;23738;50.422;18.758;2024-03-07T05:06:11;35.10;;;20.70;;
37903;SDS011;23738;50.422;18.758;2024-03-07T05:08:43;35.10;;;21.00;;
37903;SDS011;23738;50.422;18.758;2024-03-07T05:11:12;32.60;;;20.70;;
37903;SDS011;23738;50.422;18.758;2024-03-07T05:13:42;35.40;;;20.80;;
37903;SDS011;23738;50.422;18.758;2024-03-07T05:16:12;37.30;;;20.80;;
37903;SDS011;23738;50.422;18.758;2024-03-07T05:18:42;32.30;;;19.90;;
37903;SDS011;23738;50.422;18.758;2024-03-07T05:21:12;31.00;;;20.40;;
37903;SDS011;23738;50.422;18.758;2024-03-07T05:24:01;31.90;;;21.90;;
37903;SDS011;23738;50.422;18.758;2024-03-07T05:26:31;36.80;;;21.40;;
37903;SDS011;23738;50.422;18.758;2024-03-07T05:29:04;42.50;;;21.20;;
37903;SDS011;23738;50.422;18.758;2024-03-07T05:31:35;30.30;;;19.10;;
37903;SDS011;23738;50.422;18.758;2024-03-07T05:34:13;28.30;;;19.80;;
37903;SDS011;23738;50.422;18.758;2024-03-07T05:36:46;32.20;;;20.50;;
37903;SDS011;23738;50.422;18.758;2024-03-07T05:39:16;36.30;;;21.20;;
37903;SDS011;23738;50.422;18.758;2024-03-07T05:41:46;30.30;;;19.80;;
37903;SDS011;23738;50.422;18.758;2024-03-07T05:44:15;30.50;;;20.70;;
37903;SDS011;23738;50.422;18.758;2024-03-07T05:46:46;38.90;;;21.40;;
37903;SDS011;23738;50.422;18.758;2024-03-07T05:49:17;34.90;;;20.50;;
37903;SDS011;23738;50.422;18.758;2024-03-07T05:51:46;32.60;;;19.70;;
37903;SDS011;23738;50.422;18.758;2024-03-07T05:54:16;36.30;;;23.20;;
37903;SDS011;23738;50.422;18.758;2024-03-07T05:56:45;34.30;;;22.00;;
37903;SDS011;23738;50.422;18.758;2024-03-07T05:59:15;33.30;;;21.30;;
37903;SDS011;23738;50.422;18.758;2024-03-07T06:01:45;30.90;;;20.30;;
37903;SDS011;23738;50.422;18.758;2024-03-07T06:04:17;38.20;;;20.90;;
37903;SDS011;23738;50.422;18.758;2024-03-07T06:06:47;32.90;;;20.40;;
37903;SDS011;23738;50.422;18.758;2024-03-07T06:09:17;34.80;;;21.50;;
37903;SDS011;23738;50.422;18.758;2024-03-07T06:11:48;29.30;;;19.60;;
37903;SDS011;23738;50.422;18.758;2024-03-07T06:14:18;33.20;;;20.40;;
37903;SDS011;23738;50.422;18.758;2024-03-07T06:16:49;41.00;;;23.00;;
37903;SDS011;23738;50.422;18.758;2024-03-07T06:19:20;41.30;;;24.00;;
37903;SDS011;23738;50.422;18.758;2024-03-07T06:21:49;40.40;;;23.40;;
37903;SDS011;23738;50.422;18.758;2024-03-07T06:24:20;47.80;;;26.80;;
37903;SDS011;23738;50.422;18.758;2024-03-07T06:26:50;44.20;;;21.50;;
37903;SDS011;23738;50.422;18.758;2024-03-07T06:29:27;37.80;;;22.40;;
37903;SDS011;23738;50.422;18.758;2024-03-07T06:31:57;41.90;;;21.00;;
37903;SDS011;23738;50.422;18.758;2024-03-07T06:34:27;43.20;;;23.20;;
37903;SDS011;23738;50.422;18.758;2024-03-07T06:36:57;42.90;;;22.90;;
37903;SDS011;23738;50.422;18.758;2024-03-07T06:39:29;36.80;;;20.80;;
37903;SDS011;23738;50.422;18.758;2024-03-07T06:41:59;46.50;;;23.40;;
37903;SDS011;23738;50.422;18.758;2024-03-07T06:44:28;41.40;;;22.00;;
37903;SDS011;23738;50.422;18.758;2024-03-07T06:46:59;38.60;;;22.30;;
37903;SDS011;23738;50.422;18.758;2024-03-07T06:49:28;38.60;;;21.00;;
37903;SDS011;23738;50.422;18.758;2024-03-07T06:51:58;49.80;;;25.20;;
37903;SDS011;23738;50.422;18.758;2024-03-07T06:54:28;70.50;;;31.40;;
37903;SDS011;23738;50.422;18.758;2024-03-07T06:56:57;61.00;;;29.30;;
37903;SDS011;23738;50.422;18.758;2024-03-07T06:59:27;51.50;;;26.10;;
37903;SDS011;23738;50.422;18.758;2024-03-07T07:01:58;46.80;;;24.00;;
37903;SDS011;23738;50.422;18.758;2024-03-07T07:04:28;43.20;;;23.00;;
37903;SDS011;23738;50.422;18.758;2024-03-07T07:07:08;43.40;;;23.40;;
37903;SDS011;23738;50.422;18.758;2024-03-07T07:09:39;42.10;;;24.00;;
37903;SDS011;23738;50.422;18.758;2024-03-07T07:12:10;39.80;;;24.60;;
37903;SDS011;23738;50.422;18.758;2024-03-07T07:14:41;34.00;;;22.10;;
37903;SDS011;23738;50.422;18.758;2024-03-07T07:17:11;36.80;;;21.80;;
37903;SDS011;23738;50.422;18.758;2024-03-07T07:19:40;41.00;;;22.60;;
37903;SDS011;23738;50.422;18.758;2024-03-07T07:22:10;44.00;;;24.40;;
37903;SDS011;23738;50.422;18.758;2024-03-07T07:24:41;51.10;;;25.30;;
37903;SDS011;23738;50.422;18.758;2024-03-07T07:27:10;55.80;;;27.70;;
37903;SDS011;23738;50.422;18.758;2024-03-07T07:29:40;46.20;;;25.10;;
37903;SDS011;23738;50.422;18.758;2024-03-07T07:32:10;45.00;;;23.90;;
37903;SDS011;23738;50.422;18.758;2024-03-07T07:34:40;54.60;;;26.00;;
37903;SDS011;23738;50.422;18.758;2024-03-07T07:37:11;46.00;;;24.20;;
37903;SDS011;23738;50.422;18.758;2024-03-07T07:39:40;39.10;;;24.10;;
37903;SDS011;23738;50.422;18.758;2024-03-07T07:42:11;43.20;;;23.40;;
37903;SDS011;23738;50.422;18.758;2024-03-07T07:44:41;39.40;;;22.30;;
37903;SDS011;23738;50.422;18.758;2024-03-07T07:47:11;37.80;;;22.40;;
37903;SDS011;23738;50.422;18.758;2024-03-07T07:49:42;43.00;;;23.00;;
37903;SDS011;23738;50.422;18.758;2024-03-07T07:52:11;46.10;;;23.60;;
37903;SDS011;23738;50.422;18.758;2024-03-07T07:54:43;40.20;;;23.20;;
37903;SDS011;23738;50.422;18.758;2024-03-07T07:57:12;42.80;;;24.50;;
37903;SDS011;23738;50.422;18.758;2024-03-07T07:59:42;46.30;;;23.80;;
37903;SDS011;23738;50.422;18.758;2024-03-07T08:02:11;37.50;;;22.30;;
37903;SDS011;23738;50.422;18.758;2024-03-07T08:04:41;39.50;;;24.20;;
37903;SDS011;23738;50.422;18.758;2024-03-07T08:07:11;41.10;;;22.10;;
37903;SDS011;23738;50.422;18.758;2024-03-07T08:09:40;32.40;;;21.00;;
37903;SDS011;23738;50.422;18.758;2024-03-07T08:12:11;28.80;;;19.40;;
37903;SDS011;23738;50.422;18.758;2024-03-07T08:14:41;37.90;;;23.60;;
37903;SDS011;23738;50.422;18.758;2024-03-07T08:17:11;40.30;;;22.80;;
37903;SDS011;23738;50.422;18.758;2024-03-07T08:19:41;42.50;;;23.60;;
37903;SDS011;23738;50.422;18.758;2024-03-07T08:22:11;42.20;;;23.20;;
37903;SDS011;23738;50.422;18.758;2024-03-07T08:24:41;37.00;;;23.00;;
37903;SDS011;23738;50.422;18.758;2024-03-07T08:27:12;33.60;;;22.50;;
37903;SDS011;23738;50.422;18.758;2024-03-07T08:29:42;34.50;;;22.20;;
37903;SDS011;23738;50.422;18.758;2024-03-07T08:32:11;35.70;;;24.30;;
37903;SDS011;23738;50.422;18.758;2024-03-07T08:34:41;41.40;;;24.20;;
37903;SDS011;23738;50.422;18.758;2024-03-07T08:37:11;41.60;;;23.00;;
37903;SDS011;23738;50.422;18.758;2024-03-07T08:39:41;40.80;;;23.50;;
37903;SDS011;23738;50.422;18.758;2024-03-07T08:42:11;39.80;;;23.00;;
37903;SDS011;23738;50.422;18.758;2024-03-07T08:44:42;37.30;;;23.90;;
37903;SDS011;23738;50.422;18.758;2024-03-07T08:47:11;39.60;;;24.50;;
37903;SDS011;23738;50.422;18.758;2024-03-07T08:49:41;36.90;;;24.00;;
37903;SDS011;23738;50.422;18.758;2024-03-07T08:52:11;38.10;;;24.20;;
37903;SDS011;23738;50.422;18.758;2024-03-07T08:54:40;45.20;;;24.30;;
37903;SDS011;23738;50.422;18.758;2024-03-07T08:57:11;31.60;;;21.60;;
37903;SDS011;23738;50.422;18.758;2024-03-07T08:59:43;31.50;;;21.90;;
37903;SDS011;23738;50.422;18.758;2024-03-07T09:02:14;36.90;;;23.70;;
37903;SDS011;23738;50.422;18.758;2024-03-07T09:04:43;33.60;;;23.30;;
37903;SDS011;23738;50.422;18.758;2024-03-07T09:07:13;43.30;;;24.80;;
37903;SDS011;23738;50.422;18.758;2024-03-07T09:09:43;35.30;;;22.50;;
37903;SDS011;23738;50.422;18.758;2024-03-07T09:12:13;38.60;;;22.10;;
37903;SDS011;23738;50.422;18.758;2024-03-07T09:14:42;39.00;;;23.20;;
37903;SDS011;23738;50.422;18.758;2024-03-07T09:17:12;35.40;;;23.00;;
37903;SDS011;23738;50.422;18.758;2024-03-07T09:19:42;40.90;;;24.30;;
37903;SDS011;23738;50.422;18.758;2024-03-07T09:22:13;33.80;;;23.30;;
37903;SDS011;23738;50.422;18.758;2024-03-07T09:24:42;44.80;;;25.00;;
37903;SDS011;23738;50.422;18.758;2024-03-07T09:27:12;35.60;;;21.50;;
37903;SDS011;23738;50.422;18.758;2024-03-07T09:29:42;38.10;;;22.60;;
37903;SDS011;23738;50.422;18.758;2024-03-07T09:32:13;39.90;;;23.70;;
37903;SDS011;23738;50.422;18.758;2024-03-07T09:34:43;39.30;;;22.70;;
37903;SDS011;23738;50.422;18.758;2024-03-07T09:37:13;41.30;;;23.80;;
37903;SDS011;23738;50.422;18.758;2024-03-07T09:39:44;34.00;;;22.70;;
37903;SDS011;23738;50.422;18.758;2024-03-07T09:42:14;37.20;;;22.10;;
37903;SDS011;23738;50.422;18.758;2024-03-07T09:44:47;32.70;;;22.40;;
37903;SDS011;23738;50.422;18.758;2024-03-07T09:47:18;41.20;;;24.30;;
37903;SDS011;23738;50.422;18.758;2024-03-07T09:49:48;36.20;;;23.10;;
37903;SDS011;23738;50.422;18.758;2024-03-07T09:52:18;39.30;;;23.60;;
37903;SDS011;23738;50.422;18.758;2024-03-07T09:54:49;31.80;;;22.70;;
37903;SDS011;23738;50.422;18.758;2024-03-07T09:57:19;34.80;;;23.60;;
37903;SDS011;23738;50.422;18.758;2024-03-07T09:59:50;39.90;;;25.10;;
37903;SDS011;23738;50.422;18.758;2024-03-07T10:02:22;33.10;;;23.20;;
37903;SDS011;23738;50.422;18.758;2024-03-07T10:04:54;36.90;;;24.70;;
37903;SDS011;23738;50.422;18.758;2024-03-07T10:07:26;37.50;;;23.80;;
37903;SDS011;23738;50.422;18.758;2024-03-07T10:09:56;34.60;;;21.50;;
37903;SDS011;23738;50.422;18.758;2024-03-07T10:12:27;33.50;;;21.50;;
37903;SDS011;23738;50.422;18.758;2024-03-07T10:14:59;38.40;;;23.50;;
37903;SDS011;23738;50.422;18.758;2024-03-07T10:17:32;39.90;;;24.40;;
37903;SDS011;23738;50.422;18.758;2024-03-07T10:20:04;35.30;;;22.70;;
37903;SDS011;23738;50.422;18.758;2024-03-07T10:22:40;45.40;;;25.90;;
37903;SDS011;23738;50.422;18.758;2024-03-07T10:25:10;46.70;;;27.30;;
37903;SDS011;23738;50.422;18.758;2024-03-07T10:27:39;45.70;;;26.30;;
37903;SDS011;23738;50.422;18.758;2024-03-07T10:30:45;43.90;;;26.60;;
37903;SDS011;23738;50.422;18.758;2024-03-07T10:33:16;59.10;;;31.10;;
37903;SDS011;23738;50.422;18.758;2024-03-07T10:35:48;42.50;;;27.60;;
37903;SDS011;23738;50.422;18.758;2024-03-07T10:38:17;41.20;;;24.80;;
37903;SDS011;23738;50.422;18.758;2024-03-07T10:40:48;38.40;;;25.00;;
37903;SDS011;23738;50.422;18.758;2024-03-07T10:43:23;42.10;;;24.60;;
37903;SDS011;23738;50.422;18.758;2024-03-07T10:45:55;44.30;;;26.20;;
37903;SDS011;23738;50.422;18.758;2024-03-07T10:48:29;89.50;;;40.90;;
37903;SDS011;23738;50.422;18.758;2024-03-07T10:51:02;77.80;;;37.30;;
37903;SDS011;23738;50.422;18.758;2024-03-07T10:53:45;62.40;;;33.30;;
37903;SDS011;23738;50.422;18.758;2024-03-07T10:56:32;50.50;;;29.00;;
37903;SDS011;23738;50.422;18.758;2024-03-07T10:59:10;52.80;;;28.80;;
37903;SDS011;23738;50.422;18.758;2024-03-07T11:01:47;49.30;;;29.00;;
37903;SDS011;23738;50.422;18.758;2024-03-07T11:04:26;51.90;;;30.20;;
37903;SDS011;23738;50.422;18.758;2024-03-07T11:06:56;51.30;;;30.00;;
37903;SDS011;23738;50.422;18.758;2024-03-07T11:09:27;60.60;;;32.00;;
37903;SDS011;23738;50.422;18.758;2024-03-07T11:11:59;60.80;;;31.00;;
37903;SDS011;23738;50.422;18.758;2024-03-07T11:14:31;51.40;;;30.80;;
37903;SDS011;23738;50.422;18.758;2024-03-07T11:17:04;46.80;;;29.20;;
37903;SDS011;23738;50.422;18.758;2024-03-07T11:19:35;59.70;;;33.80;;
37903;SDS011;23738;50.422;18.758;2024-03-07T11:22:05;74.60;;;36.90;;
37903;SDS011;23738;50.422;18.758;2024-03-07T11:24:42;65.80;;;32.80;;
37903;SDS011;23738;50.422;18.758;2024-03-07T11:27:12;55.60;;;29.70;;
37903;SDS011;23738;50.422;18.758;2024-03-07T11:29:42;57.70;;;29.60;;
37903;SDS011;23738;50.422;18.758;2024-03-07T11:32:14;54.40;;;30.30;;
37903;SDS011;23738;50.422;18.758;2024-03-07T11:34:44;51.50;;;28.70;;
37903;SDS011;23738;50.422;18.758;2024-03-07T11:37:18;43.50;;;27.50;;
37903;SDS011;23738;50.422;18.758;2024-03-07T11:40:08;45.20;;;28.90;;
37903;SDS011;23738;50.422;18.758;2024-03-07T11:42:45;48.20;;;28.80;;
37903;SDS011;23738;50.422;18.758;2024-03-07T11:45:16;49.80;;;28.40;;
37903;SDS011;23738;50.422;18.758;2024-03-07T11:48:06;44.80;;;26.20;;
37903;SDS011;23738;50.422;18.758;2024-03-07T11:50:41;55.20;;;31.70;;
37903;SDS011;23738;50.422;18.758;2024-03-07T11:53:11;43.80;;;26.90;;
37903;SDS011;23738;50.422;18.758;2024-03-07T11:55:40;49.30;;;27.00;;
37903;SDS011;23738;50.422;18.758;2024-03-07T11:58:13;50.60;;;27.00;;
37903;SDS011;23738;50.422;18.758;2024-03-07T12:00:44;47.10;;;26.40;;
37903;SDS011;23738;50.422;18.758;2024-03-07T12:03:14;39.50;;;24.90;;
37903;SDS011;23738;50.422;18.758;2024-03-07T12:05:46;39.70;;;25.80;;
37903;SDS011;23738;50.422;18.758;2024-03-07T12:08:18;36.50;;;23.70;;
37903;SDS011;23738;50.422;18.758;2024-03-07T12:10:49;39.80;;;25.10;;
37903;SDS011;23738;50.422;18.758;2024-03-07T12:13:22;44.00;;;25.80;;
37903;SDS011;23738;50.422;18.758;2024-03-07T12:15:54;38.50;;;24.40;;
37903;SDS011;23738;50.422;18.758;2024-03-07T12:18:24;43.20;;;24.20;;
37903;SDS011;23738;50.422;18.758;2024-03-07T12:20:56;42.80;;;25.40;;
37903;SDS011;23738;50.422;18.758;2024-03-07T12:23:26;44.20;;;25.40;;
37903;SDS011;23738;50.422;18.758;2024-03-07T12:26:00;43.40;;;25.10;;
37903;SDS011;23738;50.422;18.758;2024-03-07T12:28:31;44.10;;;25.50;;
37903;SDS011;23738;50.422;18.758;2024-03-07T12:31:00;41.40;;;26.70;;
37903;SDS011;23738;50.422;18.758;2024-03-07T12:33:31;57.20;;;29.40;;
37903;SDS011;23738;50.422;18.758;2024-03-07T12:36:06;49.40;;;25.30;;
37903;SDS011;23738;50.422;18.758;2024-03-07T12:38:38;36.00;;;22.80;;
37903;SDS011;23738;50.422;18.758;2024-03-07T12:41:08;37.40;;;23.70;;
37903;SDS011;23738;50.422;18.758;2024-03-07T12:43:41;39.00;;;25.00;;
37903;SDS011;23738;50.422;18.758;2024-03-07T12:46:12;38.40;;;23.80;;
37903;SDS011;23738;50.422;18.758;2024-03-07T12:48:42;46.20;;;25.60;;
37903;SDS011;23738;50.422;18.758;2024-03-07T12:51:12;47.40;;;26.60;;
37903;SDS011;23738;50.422;18.758;2024-03-07T12:53:43;41.60;;;23.00;;
37903;SDS011;23738;50.422;18.758;2024-03-07T12:56:13;40.00;;;23.10;;
37903;SDS011;23738;50.422;18.758;2024-03-07T12:58:45;44.50;;;24.30;;
37903;SDS011;23738;50.422;18.758;2024-03-07T13:01:17;42.60;;;23.70;;
37903;SDS011;23738;50.422;18.758;2024-03-07T13:03:47;39.70;;;24.90;;
37903;SDS011;23738;50.422;18.758;2024-03-07T13:06:17;50.90;;;25.30;;
37903;SDS011;23738;50.422;18.758;2024-03-07T13:08:52;41.60;;;24.50;;
37903;SDS011;23738;50.422;18.758;2024-03-07T13:11:23;46.80;;;24.70;;
37903;SDS011;23738;50.422;18.758;2024-03-07T13:13:56;45.10;;;25.30;;
37903;SDS011;23738;50.422;18.758;2024-03-07T13:16:26;53.70;;;26.60;;
37903;SDS011;23738;50.422;18.758;2024-03-07T13:18:57;56.10;;;28.30;;
37903;SDS011;23738;50.422;18.758;2024-03-07T13:21:31;43.60;;;24.50;;
37903;SDS011;23738;50.422;18.758;2024-03-07T13:24:02;43.50;;;24.20;;
37903;SDS011;23738;50.422;18.758;2024-03-07T13:26:32;43.30;;;23.00;;
37903;SDS011;23738;50.422;18.758;2024-03-07T13:29:02;40.10;;;22.50;;
37903;SDS011;23738;50.422;18.758;2024-03-07T13:31:32;35.50;;;22.00;;
37903;SDS011;23738;50.422;18.758;2024-03-07T13:34:01;40.90;;;22.80;;
37903;SDS011;23738;50.422;18.758;2024-03-07T13:36:31;42.60;;;23.20;;
37903;SDS011;23738;50.422;18.758;2024-03-07T13:39:01;37.70;;;20.40;;
37903;SDS011;23738;50.422;18.758;2024-03-07T13:41:30;37.60;;;21.00;;
37903;SDS011;23738;50.422;18.758;2024-03-07T13:44:00;33.70;;;19.50;;
37903;SDS011;23738;50.422;18.758;2024-03-07T13:46:30;39.50;;;20.20;;
37903;SDS011;23738;50.422;18.758;2024-03-07T13:48:59;35.60;;;20.00;;
37903;SDS011;23738;50.422;18.758;2024-03-07T13:51:39;34.70;;;20.50;;
37903;SDS011;23738;50.422;18.758;2024-03-07T13:54:17;33.90;;;21.10;;
37903;SDS011;23738;50.422;18.758;2024-03-07T13:57:15;39.00;;;20.60;;
37903;SDS011;23738;50.422;18.758;2024-03-07T13:59:59;32.50;;;18.60;;
37903;SDS011;23738;50.422;18.758;2024-03-07T14:11:48;27.70;;;17.70;;
37903;SDS011;23738;50.422;18.758;2024-03-07T14:20:59;36.80;;;20.30;;
37903;SDS011;23738;50.422;18.758;2024-03-07T14:29:54;25.00;;;16.00;;
37903;SDS011;23738;50.422;18.758;2024-03-07T14:32:47;27.20;;;17.20;;
37903;SDS011;23738;50.422;18.758;2024-03-07T14:35:24;29.30;;;16.30;;
37903;SDS011;23738;50.422;18.758;2024-03-07T14:38:05;26.20;;;16.80;;
37903;SDS011;23738;50.422;18.758;2024-03-07T14:40:51;24.10;;;14.30;;
37903;SDS011;23738;50.422;18.758;2024-03-07T14:43:22;23.80;;;13.70;;
37903;SDS011;23738;50.422;18.758;2024-03-07T14:45:52;21.10;;;13.40;;
37903;SDS011;23738;50.422;18.758;2024-03-07T14:48:23;23.90;;;12.70;;
37903;SDS011;23738;50.422;18.758;2024-03-07T14:50:54;20.20;;;13.30;;
37903;SDS011;23738;50.422;18.758;2024-03-07T14:53:24;23.00;;;14.20;;